createdAt,value
2019-01-03T00:05:03.971Z,100007.55
2019-01-03T00:10:37.657Z,100010.91
2019-01-03T00:16:02.194Z,100016.33
2019-01-03T00:21:27.511Z,100020.97
2019-01-03T00:26:53.681Z,100027.66
2019-01-03T00:32:18.726Z,100028.70
2019-01-03T00:37:49.747Z,100033.23
2019-01-03T00:43:12.779Z,100030.48
2019-01-03T00:48:36.223Z,100040.03
2019-01-03T00:54:17.978Z,100035.11
2019-01-03T01:00:00.662Z,100040.89
2019-01-03T01:05:34.642Z,100059.88
2019-01-03T01:11:03.244Z,100057.45
2019-01-03T01:16:42.920Z,100067.78
2019-01-03T01:22:07.083Z,100063.88
2019-01-03T01:27:31.454Z,100079.91
2019-01-03T01:32:53.758Z,100080.61
2019-01-03T01:38:24.974Z,100092.52
2019-01-03T01:44:02.069Z,100090.38
2019-01-03T01:49:32.513Z,100094.92
2019-01-03T01:54:55.300Z,100097.23
2019-01-03T02:00:18.488Z,100095.97
2019-01-03T02:05:41.343Z,100097.44
2019-01-03T02:11:04.245Z,100111.56
2019-01-03T02:16:33.686Z,100097.63
2019-01-03T02:22:00.718Z,100099.69
2019-01-03T02:27:20.034Z,100092.37
2019-01-03T02:32:44.229Z,100093.20
2019-01-03T02:38:20.523Z,100088.28
2019-01-03T02:43:57.110Z,100084.22
2019-01-03T02:49:20.786Z,100083.58
2019-01-03T02:54:48.383Z,100072.14
2019-01-03T03:00:12.579Z,100084.69
2019-01-03T03:05:52.157Z,100076.88
2019-01-03T03:11:19.350Z,100068.73
2019-01-03T03:16:42.855Z,100073.98
2019-01-03T03:22:12.954Z,100065.94
2019-01-03T03:27:29.646Z,100067.48
2019-01-03T03:33:08.697Z,100070.19
2019-01-03T03:38:51.425Z,100063.41
2019-01-03T03:44:12.558Z,100062.56
2019-01-03T03:49:36.759Z,100066.63
2019-01-03T03:55:05.400Z,100065.78
2019-01-03T04:00:30.019Z,100066.63
2019-01-03T04:05:53.619Z,100075.06
2019-01-03T04:11:24.173Z,100082.10
2019-01-03T04:16:49.634Z,100072.82
2019-01-03T04:22:12.982Z,100082.20
2019-01-03T04:27:33.652Z,100085.41
2019-01-03T04:32:56.732Z,100087.75
2019-01-03T04:38:26.827Z,100084.41
2019-01-03T04:43:50.195Z,100084.27
2019-01-03T04:49:14.561Z,100088.25
2019-01-03T04:54:50.793Z,100092.41
2019-01-03T05:00:25.629Z,100103.22
2019-01-03T05:05:54.776Z,100106.23
2019-01-03T05:11:30.062Z,100104.44
2019-01-03T05:16:52.956Z,100098.63
2019-01-03T05:22:32.975Z,100101.37
2019-01-03T05:27:55.847Z,100087.91
2019-01-03T05:33:26.596Z,100090.25
2019-01-03T05:38:59.551Z,100091.70
2019-01-03T05:44:22.743Z,100089.64
2019-01-03T05:49:46.760Z,100094.98
2019-01-03T05:55:10.092Z,100100.16
2019-01-03T06:00:32.131Z,100096.38
2019-01-03T06:05:55.243Z,100089.09
2019-01-03T06:11:22.718Z,100101.66
2019-01-03T06:16:41.227Z,100098.72
2019-01-03T06:22:11.487Z,100097.33
2019-01-03T06:27:48.660Z,100105.64
2019-01-03T06:33:08.470Z,100115.66
2019-01-03T06:38:35.672Z,100108.27
2019-01-03T06:43:59.013Z,100117.69
2019-01-03T06:49:29.242Z,100125.61
2019-01-03T06:54:53.135Z,100124.05
2019-01-03T07:00:32.770Z,100131.28
2019-01-03T07:06:15.125Z,100131.55
2019-01-03T07:11:38.170Z,100137.70
2019-01-03T07:17:01.485Z,100123.90
2019-01-03T07:22:44.102Z,100127.58
2019-01-03T07:28:07.488Z,100137.70
2019-01-03T07:33:30.945Z,100137.20
2019-01-03T07:38:53.435Z,100149.04
2019-01-03T07:44:16.381Z,100151.11
2019-01-03T07:49:39.338Z,100158.95
2019-01-03T07:55:16.093Z,100155.39
2019-01-03T08:00:47.573Z,100152.61
2019-01-03T08:06:11.646Z,100162.97
2019-01-03T08:11:51.110Z,100164.09
2019-01-03T08:17:12.163Z,100159.75
2019-01-03T08:22:39.485Z,100161.39
2019-01-03T08:28:06.415Z,100168.69
2019-01-03T08:33:37.269Z,100170.66
2019-01-03T08:39:00.427Z,100175.27
2019-01-03T08:44:27.057Z,100179.13
2019-01-03T08:50:04.068Z,100180.91
2019-01-03T08:55:27.768Z,100177.11
2019-01-03T09:00:51.912Z,100169.40
2019-01-03T09:06:15.345Z,100166.11
2019-01-03T09:11:45.526Z,100166.52
2019-01-03T09:17:04.443Z,100164.62
2019-01-03T09:22:27.665Z,100163.27
2019-01-03T09:28:01.018Z,100177.76
2019-01-03T09:33:24.712Z,100181.89
2019-01-03T09:38:48.959Z,100180.16
2019-01-03T09:44:05.546Z,100178.06
2019-01-03T09:49:11.187Z,100169.34
2019-01-03T09:54:17.398Z,100165.25
2019-01-03T09:59:22.907Z,100158.83
2019-01-03T10:04:28.447Z,100151.45
2019-01-03T10:09:33.678Z,100142.88
2019-01-03T10:14:39.223Z,100131.45
2019-01-03T10:19:44.397Z,100125.53
2019-01-03T10:24:50.826Z,100119.20
2019-01-03T10:29:55.999Z,100123.44
2019-01-03T10:35:01.187Z,100125.01
2019-01-03T10:40:06.785Z,100110.91
2019-01-03T10:45:12.073Z,100099.81
2019-01-03T10:50:17.276Z,100085.03
2019-01-03T10:55:22.445Z,100068.66
2019-01-03T11:00:27.609Z,100074.91
2019-01-03T11:05:33.868Z,100077.78
2019-01-03T11:10:39.035Z,100070.16
2019-01-03T11:15:44.341Z,100061.66
2019-01-03T11:20:49.492Z,100058.78
2019-01-03T11:25:54.584Z,100056.25
2019-01-03T11:31:00.072Z,100053.16
2019-01-03T11:36:05.245Z,100041.27
2019-01-03T11:41:10.432Z,100039.88
2019-01-03T11:46:15.633Z,100030.11
2019-01-03T11:51:20.831Z,100028.50
2019-01-03T11:56:26.007Z,100030.65
2019-01-03T12:01:31.476Z,100034.09
2019-01-03T12:06:37.009Z,100024.97
2019-01-03T12:11:43.223Z,100024.25
2019-01-03T12:16:48.408Z,100014.28
2019-01-03T12:21:53.926Z,100014.05
2019-01-03T12:26:59.393Z,100018.50
2019-01-03T12:32:04.665Z,100028.08
2019-01-03T12:37:09.849Z,100031.84
2019-01-03T12:42:15.021Z,100020.48
2019-01-03T12:47:20.234Z,100035.63
2019-01-03T12:52:25.968Z,100025.59
2019-01-03T12:57:31.140Z,100024.63
2019-01-03T13:02:36.685Z,100037.73
2019-01-03T13:07:41.920Z,100061.70
2019-01-03T13:12:47.099Z,100073.31
2019-01-03T13:17:53.459Z,100058.09
2019-01-03T13:23:00.343Z,100064.88
2019-01-03T13:28:05.505Z,100074.58
2019-01-03T13:33:10.701Z,100084.55
2019-01-03T13:38:16.194Z,100081.67
2019-01-03T13:43:21.501Z,100086.42
2019-01-03T13:48:26.778Z,100083.44
2019-01-03T13:53:32.011Z,100088.30
2019-01-03T13:58:37.649Z,100082.13
2019-01-03T14:03:42.819Z,100081.21
2019-01-03T14:08:48.020Z,100082.59
2019-01-03T14:13:53.202Z,100087.61
2019-01-03T14:18:59.825Z,100091.41
2019-01-03T14:24:05.975Z,100088.03
2019-01-03T14:29:11.182Z,100083.97
2019-01-03T14:34:16.366Z,100095.59
2019-01-03T14:39:21.558Z,100101.37
2019-01-03T14:44:26.929Z,100092.83
2019-01-03T14:49:32.178Z,100090.91
2019-01-03T14:54:37.443Z,100099.08
2019-01-03T14:59:42.917Z,100077.98
2019-01-03T15:04:48.794Z,100076.69
2019-01-03T15:09:54.284Z,100065.88
2019-01-03T15:15:00.967Z,100058.44
2019-01-03T15:20:06.611Z,100054.41
2019-01-03T15:25:12.428Z,100071.58
2019-01-03T15:30:17.638Z,100076.87
2019-01-03T15:35:23.507Z,100075.48
2019-01-03T15:40:28.814Z,100075.10
2019-01-03T15:45:33.993Z,100065.83
2019-01-03T15:50:40.692Z,100071.58
2019-01-03T15:55:46.263Z,100073.07
2019-01-03T16:00:51.439Z,100073.70
2019-01-03T16:05:56.618Z,100078.81
2019-01-03T16:11:01.835Z,100079.16
2019-01-03T16:16:07.067Z,100075.74
2019-01-03T16:21:12.629Z,100078.34
2019-01-03T16:26:17.850Z,100080.38
2019-01-03T16:31:23.066Z,100077.09
2019-01-03T16:36:28.244Z,100074.48
2019-01-03T16:41:33.789Z,100080.16
2019-01-03T16:46:39.283Z,100082.49
2019-01-03T16:51:45.481Z,100089.50
2019-01-03T16:56:50.665Z,100082.91
2019-01-03T17:01:55.967Z,100087.20
2019-01-03T17:07:01.263Z,100092.03
2019-01-03T17:12:08.670Z,100083.12
2019-01-03T17:17:13.864Z,100093.48
2019-01-03T17:22:19.492Z,100093.44
2019-01-03T17:27:25.143Z,100101.06
2019-01-03T17:32:30.712Z,100107.77
2019-01-03T17:37:35.910Z,100102.45
2019-01-03T17:42:42.149Z,100105.37
2019-01-03T17:47:47.323Z,100110.64
2019-01-03T17:52:52.808Z,100111.05
2019-01-03T17:57:58.879Z,100106.60
2019-01-03T18:03:04.451Z,100112.66
2019-01-03T18:08:09.695Z,100101.31
2019-01-03T18:13:14.972Z,100097.14
2019-01-03T18:18:20.533Z,100101.72
2019-01-03T18:23:26.342Z,100091.19
2019-01-03T18:28:31.505Z,100091.60
2019-01-03T18:33:36.691Z,100092.55
2019-01-03T18:38:42.242Z,100097.48
2019-01-03T18:43:47.697Z,100098.95
2019-01-03T18:48:53.799Z,100107.34
2019-01-03T18:53:59.108Z,100119.92
2019-01-03T18:59:04.290Z,100123.36
2019-01-03T19:04:09.529Z,100115.15
2019-01-03T19:09:14.738Z,100112.27
2019-01-03T19:14:19.905Z,100123.83
2019-01-03T19:19:25.194Z,100128.41
2019-01-03T19:24:30.418Z,100133.16
2019-01-03T19:29:35.606Z,100131.75
2019-01-03T19:34:41.595Z,100128.59
2019-01-03T19:39:47.154Z,100131.86
2019-01-03T19:44:52.481Z,100143.65
2019-01-03T19:49:57.967Z,100143.76
2019-01-03T19:55:03.149Z,100142.56
2019-01-03T20:00:10.729Z,100137.19
2019-01-03T20:05:16.267Z,100137.81
2019-01-03T20:10:21.454Z,100140.92
2019-01-03T20:15:26.682Z,100134.03
2019-01-03T20:20:31.859Z,100142.79
2019-01-03T20:25:37.820Z,100142.89
2019-01-03T20:30:43.259Z,100144.84
2019-01-03T20:35:48.890Z,100145.95
2019-01-03T20:40:54.080Z,100150.70
2019-01-03T20:45:59.480Z,100150.43
2019-01-03T20:51:05.136Z,100150.78
2019-01-03T20:56:10.330Z,100133.67
2019-01-03T21:01:15.970Z,100126.09
2019-01-03T21:06:21.218Z,100127.00
2019-01-03T21:11:26.412Z,100139.84
2019-01-03T21:16:32.459Z,100132.66
2019-01-03T21:21:37.649Z,100128.65
2019-01-03T21:26:43.119Z,100133.95
2019-01-03T21:31:48.313Z,100143.59
2019-01-03T21:36:53.538Z,100150.71
2019-01-03T21:41:58.719Z,100143.34
2019-01-03T21:47:04.454Z,100143.73
2019-01-03T21:52:10.844Z,100142.02
2019-01-03T21:57:16.264Z,100154.09
2019-01-03T22:02:21.857Z,100127.28
2019-01-03T22:07:27.930Z,100125.28
2019-01-03T22:12:34.529Z,100127.14
2019-01-03T22:17:39.886Z,100128.34
2019-01-03T22:22:45.096Z,100136.54
2019-01-03T22:27:50.296Z,100140.04
2019-01-03T22:32:55.886Z,100133.88
2019-01-03T22:38:01.447Z,100130.67
2019-01-03T22:43:06.654Z,100126.72
2019-01-03T22:48:12.122Z,100120.55
2019-01-03T22:53:18.517Z,100131.19
2019-01-03T22:58:24.071Z,100122.39
2019-01-03T23:03:29.514Z,100133.55
2019-01-03T23:08:34.702Z,100125.92
2019-01-03T23:13:39.914Z,100132.66
2019-01-03T23:18:46.276Z,100122.86
2019-01-03T23:23:51.528Z,100120.68
2019-01-03T23:28:56.710Z,100121.41
2019-01-03T23:34:01.886Z,100125.30
2019-01-03T23:39:07.295Z,100109.94
2019-01-03T23:44:12.485Z,100110.88
2019-01-03T23:49:17.990Z,100108.00
2019-01-03T23:54:23.195Z,100110.51
2019-01-03T23:59:28.377Z,100109.09
